Time;durP1;ratioP1;P1;durP2;ratioP2;P2;SDS_P1;SDS_P2;PMS_P1;PMS_P2;Temp;Humidity;BMP_temperature;BMP_pressure;BME280_temperature;BME280_humidity;BME280_pressure;Samples;Min_cycle;Max_cycle;Signal;HPM_P1;HPM_P2
2023/12/08 00:03:23;;;;;;;226.67;88.47;;;;;;;;;;10477642;28;20120;-82
2023/12/08 00:08:24;;;;;;;232.67;96.33;;;;;;;;;;10493665;28;20029;-84
2023/12/08 00:13:26;;;;;;;231.53;90.77;;;;;;;;;;10497439;28;20068;-84
2023/12/08 00:18:27;;;;;;;238.83;94.23;;;;;;;;;;10494286;28;20064;-83
2023/12/08 00:23:28;;;;;;;234.17;92.00;;;;;;;;;;10476706;28;20127;-82
2023/12/08 00:28:29;;;;;;;226.87;89.63;;;;;;;;;;10488439;28;20028;-83
2023/12/08 00:33:30;;;;;;;247.30;92.63;;;;;;;;;;10469968;28;20052;-83
2023/12/08 00:38:32;;;;;;;242.17;91.83;;;;;;;;;;10412810;28;20039;-82
2023/12/08 00:43:33;;;;;;;256.93;99.23;;;;;;;;;;10442755;28;20028;-83
2023/12/08 00:48:34;;;;;;;232.87;90.20;;;;;;;;;;10446859;28;20032;-83
2023/12/08 00:53:35;;;;;;;245.67;96.90;;;;;;;;;;10452011;28;20111;-84
2023/12/08 00:58:37;;;;;;;236.00;92.47;;;;;;;;;;10440834;28;20040;-84
2023/12/08 01:03:38;;;;;;;240.33;91.83;;;;;;;;;;10451166;28;20124;-82
2023/12/08 01:08:39;;;;;;;240.37;93.97;;;;;;;;;;10451574;28;20041;-83
2023/12/08 01:13:40;;;;;;;235.40;93.10;;;;;;;;;;10438001;28;20043;-83
2023/12/08 01:18:41;;;;;;;219.47;86.70;;;;;;;;;;10420376;28;20049;-83
2023/12/08 01:23:42;;;;;;;242.33;96.23;;;;;;;;;;10443909;28;20041;-83
2023/12/08 01:28:44;;;;;;;233.87;93.60;;;;;;;;;;10432654;28;20070;-83
2023/12/08 01:33:45;;;;;;;239.70;95.93;;;;;;;;;;10476734;28;20056;-85
2023/12/08 01:38:46;;;;;;;249.67;98.07;;;;;;;;;;10479800;28;20166;-83
2023/12/08 01:43:48;;;;;;;244.53;94.37;;;;;;;;;;10491600;28;20040;-83
2023/12/08 01:48:49;;;;;;;244.00;96.10;;;;;;;;;;10468964;28;20033;-84
2023/12/08 01:53:50;;;;;;;240.10;92.37;;;;;;;;;;10491832;28;20090;-84
2023/12/08 01:58:58;;;;;;;241.03;94.50;;;;;;;;;;10489469;28;20119;-85
2023/12/08 02:03:59;;;;;;;238.37;92.03;;;;;;;;;;10489948;28;20546;-83
2023/12/08 02:09:01;;;;;;;249.97;91.47;;;;;;;;;;10483088;28;20165;-83
2023/12/08 02:14:02;;;;;;;228.83;90.17;;;;;;;;;;10469989;28;20100;-83
2023/12/08 02:19:08;;;;;;;251.33;94.03;;;;;;;;;;10490415;28;20116;-83
2023/12/08 02:24:09;;;;;;;248.20;91.97;;;;;;;;;;10496680;28;20084;-83
2023/12/08 02:29:10;;;;;;;222.67;88.57;;;;;;;;;;10472340;28;20127;-85
2023/12/08 02:34:13;;;;;;;239.53;99.60;;;;;;;;;;10489402;28;20064;-83
2023/12/08 02:39:16;;;;;;;229.27;89.03;;;;;;;;;;10482689;28;20036;-83
2023/12/08 02:44:23;;;;;;;211.47;87.00;;;;;;;;;;10485566;28;20040;-85
2023/12/08 02:49:24;;;;;;;218.43;88.97;;;;;;;;;;10488678;28;20032;-84
2023/12/08 02:54:25;;;;;;;237.17;92.70;;;;;;;;;;10495729;28;20159;-81
2023/12/08 02:59:26;;;;;;;234.77;95.47;;;;;;;;;;10499584;28;20037;-84
2023/12/08 03:04:27;;;;;;;225.27;92.33;;;;;;;;;;10490187;28;20075;-83
2023/12/08 03:09:28;;;;;;;215.30;90.07;;;;;;;;;;10487760;28;20115;-82
2023/12/08 03:14:30;;;;;;;233.57;92.97;;;;;;;;;;10489392;28;20115;-83
2023/12/08 03:19:31;;;;;;;241.40;97.43;;;;;;;;;;10484248;28;20060;-83
2023/12/08 03:24:32;;;;;;;238.70;92.27;;;;;;;;;;10493749;28;20128;-82
2023/12/08 03:29:39;;;;;;;213.10;86.80;;;;;;;;;;10486652;28;20123;-83
2023/12/08 03:34:46;;;;;;;332.60;139.40;;;;;;;;;;10449837;28;20092;-85
2023/12/08 03:39:47;;;;;;;258.87;103.57;;;;;;;;;;10453876;28;20029;-82
2023/12/08 03:44:48;;;;;;;269.07;111.13;;;;;;;;;;10453908;28;20041;-83
2023/12/08 03:49:49;;;;;;;230.00;96.57;;;;;;;;;;10451673;28;20116;-83
2023/12/08 03:54:50;;;;;;;220.33;89.10;;;;;;;;;;10454125;28;20036;-82
2023/12/08 03:59:51;;;;;;;209.13;82.87;;;;;;;;;;10419411;28;20129;-82
2023/12/08 04:04:52;;;;;;;189.47;77.67;;;;;;;;;;10443665;28;20131;-83
2023/12/08 04:09:53;;;;;;;195.60;78.87;;;;;;;;;;10445185;28;20561;-83
2023/12/08 04:14:54;;;;;;;212.17;81.13;;;;;;;;;;10426201;28;20540;-84
2023/12/08 04:19:56;;;;;;;200.53;80.13;;;;;;;;;;10446473;28;20133;-83
2023/12/08 04:24:57;;;;;;;236.70;95.07;;;;;;;;;;10440403;28;20072;-83
2023/12/08 04:29:58;;;;;;;219.90;90.67;;;;;;;;;;10449010;28;20029;-84
2023/12/08 04:34:59;;;;;;;224.23;90.13;;;;;;;;;;10487486;28;20053;-83
2023/12/08 04:40:00;;;;;;;244.10;96.37;;;;;;;;;;10494938;28;20037;-82
2023/12/08 04:45:01;;;;;;;213.17;88.07;;;;;;;;;;10477290;28;20047;-82
2023/12/08 04:50:02;;;;;;;221.47;91.10;;;;;;;;;;10484456;28;20025;-83
2023/12/08 04:55:04;;;;;;;250.73;104.43;;;;;;;;;;10489814;28;20140;-82
2023/12/08 05:00:05;;;;;;;257.30;95.87;;;;;;;;;;10491011;28;20036;-82
2023/12/08 05:05:07;;;;;;;269.13;102.43;;;;;;;;;;10501592;28;20123;-82
2023/12/08 05:10:08;;;;;;;224.53;90.07;;;;;;;;;;10490264;28;20120;-83
2023/12/08 05:15:09;;;;;;;277.80;107.27;;;;;;;;;;10488858;28;20040;-83
2023/12/08 05:20:12;;;;;;;315.00;118.30;;;;;;;;;;10464265;28;20056;-83
2023/12/08 05:25:13;;;;;;;287.10;107.10;;;;;;;;;;10475802;28;20044;-82
2023/12/08 05:30:15;;;;;;;289.37;112.30;;;;;;;;;;10489652;28;20040;-84
2023/12/08 05:35:16;;;;;;;226.60;92.27;;;;;;;;;;10490477;28;20499;-84
2023/12/08 05:40:18;;;;;;;229.20;85.43;;;;;;;;;;10490010;28;20088;-83
2023/12/08 05:45:19;;;;;;;204.73;81.27;;;;;;;;;;10477671;28;20392;-83
2023/12/08 05:50:20;;;;;;;224.13;94.07;;;;;;;;;;10485756;28;20048;-83
2023/12/08 05:55:21;;;;;;;219.00;88.67;;;;;;;;;;10489419;28;20116;-83
2023/12/08 06:00:22;;;;;;;218.93;80.93;;;;;;;;;;10489811;28;20130;-83
2023/12/08 06:05:24;;;;;;;196.87;76.40;;;;;;;;;;10479330;28;20056;-83
2023/12/08 06:10:25;;;;;;;182.00;75.90;;;;;;;;;;10476542;28;20059;-84
2023/12/08 06:15:26;;;;;;;199.43;78.87;;;;;;;;;;10482935;28;20498;-83
2023/12/08 06:20:27;;;;;;;196.67;81.97;;;;;;;;;;10489541;28;20404;-82
2023/12/08 06:25:28;;;;;;;241.90;99.57;;;;;;;;;;10482755;28;20155;-83
2023/12/08 06:30:29;;;;;;;242.87;99.83;;;;;;;;;;10489886;28;20111;-82
2023/12/08 06:35:30;;;;;;;249.20;103.13;;;;;;;;;;10488504;28;20056;-83
2023/12/08 06:40:41;;;;;;;254.43;107.27;;;;;;;;;;10487816;28;20135;-83
2023/12/08 06:45:42;;;;;;;273.67;105.80;;;;;;;;;;10485992;28;20072;-84
2023/12/08 06:50:43;;;;;;;220.47;87.27;;;;;;;;;;10489248;28;20722;-83
2023/12/08 06:55:44;;;;;;;217.77;84.60;;;;;;;;;;10489146;28;20115;-83
2023/12/08 07:00:45;;;;;;;168.90;65.03;;;;;;;;;;10478668;28;20151;-85
2023/12/08 07:05:46;;;;;;;137.47;53.23;;;;;;;;;;10479211;28;20127;-84
2023/12/08 07:10:47;;;;;;;138.53;54.83;;;;;;;;;;10488357;28;20036;-82
2023/12/08 07:15:48;;;;;;;133.23;58.57;;;;;;;;;;10488469;28;20074;-83
2023/12/08 07:20:50;;;;;;;140.60;59.83;;;;;;;;;;10488527;28;20115;-83
2023/12/08 07:25:51;;;;;;;137.40;55.87;;;;;;;;;;10487524;28;20090;-83
2023/12/08 07:30:52;;;;;;;130.90;54.40;;;;;;;;;;10465970;28;20075;-82
2023/12/08 07:36:00;;;;;;;141.13;63.10;;;;;;;;;;10444580;28;20883;-83
2023/12/08 07:41:01;;;;;;;113.13;48.87;;;;;;;;;;10445947;28;20036;-83
2023/12/08 07:46:02;;;;;;;107.53;44.50;;;;;;;;;;10447258;28;20392;-82
2023/12/08 07:51:05;;;;;;;126.97;51.07;;;;;;;;;;10446726;28;20020;-83
2023/12/08 07:56:13;;;;;;;122.70;49.03;;;;;;;;;;10446736;28;20032;-83
2023/12/08 08:01:14;;;;;;;103.57;42.70;;;;;;;;;;10451195;28;20036;-82
2023/12/08 08:06:15;;;;;;;118.47;52.03;;;;;;;;;;10440072;28;20144;-82
2023/12/08 08:11:16;;;;;;;117.70;53.00;;;;;;;;;;10453379;28;20119;-83
2023/12/08 08:16:17;;;;;;;109.83;46.70;;;;;;;;;;10452737;28;20053;-82
2023/12/08 08:21:19;;;;;;;113.03;45.93;;;;;;;;;;10454264;28;20545;-83
2023/12/08 08:26:20;;;;;;;111.77;46.60;;;;;;;;;;10453589;28;20044;-82
2023/12/08 08:31:21;;;;;;;124.00;55.40;;;;;;;;;;10455862;28;20040;-83
2023/12/08 08:36:25;;;;;;;90.73;38.07;;;;;;;;;;10488524;28;20044;-84
2023/12/08 08:41:26;;;;;;;88.63;36.50;;;;;;;;;;10490701;28;21415;-84
2023/12/08 08:46:28;;;;;;;82.70;35.10;;;;;;;;;;10483999;28;20033;-83
2023/12/08 08:51:29;;;;;;;84.90;36.17;;;;;;;;;;10483833;28;20691;-83
2023/12/08 08:56:31;;;;;;;87.47;42.10;;;;;;;;;;10493991;28;20107;-82
2023/12/08 09:01:32;;;;;;;78.20;36.17;;;;;;;;;;10487100;28;20121;-83
2023/12/08 09:06:33;;;;;;;79.57;35.00;;;;;;;;;;10471479;28;20045;-83
2023/12/08 09:11:34;;;;;;;87.53;33.83;;;;;;;;;;10489695;28;20111;-82
2023/12/08 09:16:36;;;;;;;116.50;51.03;;;;;;;;;;10490528;28;20024;-82
2023/12/08 09:21:37;;;;;;;134.20;57.70;;;;;;;;;;10493058;28;20107;-84
2023/12/08 09:26:38;;;;;;;114.83;48.57;;;;;;;;;;10492113;28;20111;-83
2023/12/08 09:31:39;;;;;;;127.53;51.60;;;;;;;;;;10491776;28;20036;-83
2023/12/08 09:36:41;;;;;;;98.43;40.57;;;;;;;;;;10436997;28;20135;-82
2023/12/08 09:41:42;;;;;;;108.70;46.70;;;;;;;;;;10450492;28;20124;-83
2023/12/08 09:46:44;;;;;;;96.10;41.70;;;;;;;;;;10449405;28;20485;-83
2023/12/08 09:51:45;;;;;;;74.13;33.17;;;;;;;;;;10444192;28;20040;-82
2023/12/08 09:56:47;;;;;;;77.90;35.70;;;;;;;;;;10449706;28;20033;-82
2023/12/08 10:01:48;;;;;;;81.37;36.70;;;;;;;;;;10449220;28;20115;-82
2023/12/08 10:06:50;;;;;;;94.60;40.77;;;;;;;;;;10441911;28;20056;-83
2023/12/08 10:11:51;;;;;;;79.80;34.83;;;;;;;;;;10442603;28;20384;-83
2023/12/08 10:16:52;;;;;;;75.23;35.13;;;;;;;;;;10450028;28;20035;-83
2023/12/08 10:22:00;;;;;;;85.53;42.80;;;;;;;;;;10421557;28;20063;-82
2023/12/08 10:27:01;;;;;;;102.23;46.30;;;;;;;;;;10443566;28;20060;-82
2023/12/08 10:32:04;;;;;;;118.37;58.87;;;;;;;;;;10444737;28;20080;-83
2023/12/08 10:37:06;;;;;;;89.67;43.40;;;;;;;;;;10469773;28;20125;-81
2023/12/08 10:42:13;;;;;;;77.60;35.10;;;;;;;;;;10490505;28;20105;-82
2023/12/08 10:47:14;;;;;;;103.73;42.80;;;;;;;;;;10484367;28;20539;-82
2023/12/08 10:52:17;;;;;;;128.17;52.13;;;;;;;;;;10490223;28;20067;-82
2023/12/08 10:57:18;;;;;;;85.53;35.00;;;;;;;;;;10489866;28;20028;-83
2023/12/08 11:02:30;;;;;;;64.33;27.50;;;;;;;;;;10489355;28;20040;-84
2023/12/08 11:07:36;;;;;;;81.30;35.27;;;;;;;;;;10490169;28;20555;-84
2023/12/08 11:12:40;;;;;;;59.23;26.40;;;;;;;;;;10490096;28;20078;-82
2023/12/08 11:17:44;;;;;;;104.20;40.40;;;;;;;;;;10489468;28;20045;-83
2023/12/08 11:22:46;;;;;;;79.10;33.47;;;;;;;;;;10489828;28;20147;-83
2023/12/08 11:27:51;;;;;;;81.87;34.73;;;;;;;;;;10488811;28;20033;-83
2023/12/08 11:32:56;;;;;;;69.18;31.00;;;;;;;;;;10480497;28;20519;-82
2023/12/08 11:37:57;;;;;;;60.50;28.27;;;;;;;;;;10454527;28;20112;-82
2023/12/08 11:42:58;;;;;;;54.23;26.13;;;;;;;;;;10442625;28;20029;-83
2023/12/08 11:48:11;;;;;;;64.10;32.27;;;;;;;;;;10455298;28;20029;-83
2023/12/08 11:53:12;;;;;;;80.63;38.93;;;;;;;;;;10455832;28;20491;-82
2023/12/08 11:58:17;;;;;;;79.83;35.77;;;;;;;;;;10455464;28;20033;-82
2023/12/08 12:03:18;;;;;;;62.23;29.33;;;;;;;;;;10441291;28;20044;-84
2023/12/08 12:08:20;;;;;;;63.37;29.03;;;;;;;;;;10453964;28;20108;-82
2023/12/08 12:13:23;;;;;;;61.47;29.20;;;;;;;;;;10455149;28;20140;-84
2023/12/08 12:18:24;;;;;;;110.90;50.00;;;;;;;;;;10436864;28;20051;-83
2023/12/08 12:23:25;;;;;;;72.30;33.70;;;;;;;;;;10454534;28;20106;-81
2023/12/08 12:28:26;;;;;;;71.37;31.97;;;;;;;;;;10453557;28;20032;-84
2023/12/08 12:33:28;;;;;;;66.90;29.87;;;;;;;;;;10466608;28;20084;-82
2023/12/08 12:38:29;;;;;;;57.07;27.37;;;;;;;;;;10493222;28;20024;-83
2023/12/08 12:43:30;;;;;;;70.00;31.13;;;;;;;;;;10474795;28;20123;-83
2023/12/08 12:48:31;;;;;;;82.93;38.27;;;;;;;;;;10492127;28;20078;-85
2023/12/08 12:53:42;;;;;;;68.53;31.00;;;;;;;;;;10495307;28;20051;-83
2023/12/08 12:58:43;;;;;;;57.33;28.50;;;;;;;;;;10487162;28;20115;-83
2023/12/08 13:03:46;;;;;;;68.93;31.27;;;;;;;;;;10493956;28;20119;-82
2023/12/08 13:08:47;;;;;;;84.60;36.30;;;;;;;;;;10493321;28;20101;-83
2023/12/08 13:13:48;;;;;;;92.67;40.60;;;;;;;;;;10489526;28;20532;-84
2023/12/08 13:18:49;;;;;;;91.03;37.57;;;;;;;;;;10500169;28;20118;-85
2023/12/08 13:23:50;;;;;;;99.40;43.80;;;;;;;;;;10497319;28;20878;-82
2023/12/08 13:28:51;;;;;;;99.50;46.17;;;;;;;;;;10493986;28;20119;-83
2023/12/08 13:33:52;;;;;;;86.87;36.60;;;;;;;;;;10491937;28;20061;-83
2023/12/08 13:38:53;;;;;;;72.97;31.93;;;;;;;;;;10475725;28;20042;-83
2023/12/08 13:43:54;;;;;;;92.03;38.63;;;;;;;;;;10470674;28;20037;-83
2023/12/08 13:48:56;;;;;;;92.60;38.83;;;;;;;;;;10467017;28;20499;-82
2023/12/08 13:53:57;;;;;;;71.80;31.80;;;;;;;;;;10494795;28;20029;-84
2023/12/08 13:59:05;;;;;;;67.30;32.93;;;;;;;;;;10469820;28;20418;-82
2023/12/08 14:04:06;;;;;;;362.63;173.10;;;;;;;;;;10494748;28;20123;-83
2023/12/08 14:09:09;;;;;;;195.93;90.47;;;;;;;;;;10490221;28;20511;-82
2023/12/08 14:14:11;;;;;;;193.60;100.27;;;;;;;;;;10484614;28;20033;-83
2023/12/08 14:19:13;;;;;;;154.57;76.20;;;;;;;;;;10491284;28;20039;-82
2023/12/08 14:24:14;;;;;;;101.33;46.03;;;;;;;;;;10496238;28;20042;-83
2023/12/08 14:29:15;;;;;;;123.67;62.33;;;;;;;;;;10480790;28;20027;-83
2023/12/08 14:34:16;;;;;;;90.27;40.33;;;;;;;;;;10478356;28;20049;-83
2023/12/08 14:39:18;;;;;;;113.07;50.97;;;;;;;;;;10447802;28;20108;-84
2023/12/08 14:44:19;;;;;;;128.43;54.40;;;;;;;;;;10430134;28;20060;-84
2023/12/08 14:49:20;;;;;;;149.63;60.90;;;;;;;;;;10438587;28;21000;-83
2023/12/08 14:54:21;;;;;;;168.43;66.33;;;;;;;;;;10446869;28;20067;-83
2023/12/08 14:59:22;;;;;;;156.73;69.23;;;;;;;;;;10410056;28;20124;-84
2023/12/08 15:04:23;;;;;;;196.27;75.37;;;;;;;;;;10408942;28;20495;-84
2023/12/08 15:09:24;;;;;;;182.53;80.57;;;;;;;;;;10440002;28;20044;-84
2023/12/08 15:14:26;;;;;;;198.93;81.40;;;;;;;;;;10437059;28;20416;-84
2023/12/08 15:19:27;;;;;;;169.13;66.70;;;;;;;;;;10437377;28;20072;-83
2023/12/08 15:24:28;;;;;;;205.87;89.97;;;;;;;;;;10433283;28;20049;-84
2023/12/08 15:29:29;;;;;;;223.03;88.00;;;;;;;;;;10434126;28;20033;-84
2023/12/08 15:34:30;;;;;;;159.33;62.73;;;;;;;;;;10465341;28;20151;-83
2023/12/08 15:39:32;;;;;;;136.23;52.43;;;;;;;;;;10483666;28;20762;-83
2023/12/08 15:44:33;;;;;;;142.87;57.03;;;;;;;;;;10491593;28;20033;-83
2023/12/08 15:49:37;;;;;;;136.17;61.10;;;;;;;;;;10474139;28;20483;-84
2023/12/08 15:54:38;;;;;;;115.00;50.67;;;;;;;;;;10462420;28;21906;-84
2023/12/08 15:59:40;;;;;;;141.70;56.10;;;;;;;;;;10497019;28;20072;-84
2023/12/08 16:04:42;;;;;;;157.70;66.70;;;;;;;;;;10482675;28;20112;-84
2023/12/08 16:09:43;;;;;;;157.83;65.70;;;;;;;;;;10495111;28;20067;-81
2023/12/08 16:14:44;;;;;;;123.53;47.20;;;;;;;;;;10492985;28;20032;-84
2023/12/08 16:19:45;;;;;;;139.33;61.10;;;;;;;;;;10464695;28;20055;-83
2023/12/08 16:24:47;;;;;;;120.97;51.80;;;;;;;;;;10497924;28;20483;-83
2023/12/08 16:29:48;;;;;;;107.03;47.77;;;;;;;;;;10493068;28;20764;-83
2023/12/08 16:34:49;;;;;;;107.03;42.13;;;;;;;;;;10511993;28;20135;-83
2023/12/08 16:40:02;;;;;;;121.67;47.87;;;;;;;;;;10509837;28;20111;-82
2023/12/08 16:45:04;;;;;;;163.70;61.50;;;;;;;;;;10493467;28;20036;-82
2023/12/08 16:50:05;;;;;;;170.23;70.63;;;;;;;;;;10489011;28;20107;-82
2023/12/08 16:55:06;;;;;;;178.03;77.23;;;;;;;;;;10493629;28;20032;-82
2023/12/08 17:00:08;;;;;;;123.13;50.33;;;;;;;;;;10493340;28;20027;-81
2023/12/08 17:05:09;;;;;;;111.00;47.37;;;;;;;;;;10474493;28;20395;-82
2023/12/08 17:10:10;;;;;;;108.47;45.33;;;;;;;;;;10492451;28;20645;-82
2023/12/08 17:15:12;;;;;;;99.90;43.43;;;;;;;;;;10492746;28;20016;-83
2023/12/08 17:20:13;;;;;;;635.70;293.37;;;;;;;;;;10492127;28;20059;-82
2023/12/08 17:25:15;;;;;;;347.87;139.33;;;;;;;;;;10492889;28;20128;-82
2023/12/08 17:30:18;;;;;;;118.10;47.53;;;;;;;;;;10491371;28;20790;-83
2023/12/08 17:35:19;;;;;;;139.57;50.70;;;;;;;;;;10484204;28;20137;-83
2023/12/08 17:40:21;;;;;;;128.33;51.73;;;;;;;;;;10490476;28;20032;-83
2023/12/08 17:45:22;;;;;;;162.67;61.90;;;;;;;;;;10483601;28;20049;-83
2023/12/08 17:50:23;;;;;;;181.80;69.03;;;;;;;;;;10486387;28;20369;-82
2023/12/08 17:55:24;;;;;;;183.43;80.70;;;;;;;;;;10490832;28;20040;-83
2023/12/08 18:00:25;;;;;;;223.60;95.17;;;;;;;;;;10462400;28;20145;-83
2023/12/08 18:05:26;;;;;;;160.77;69.77;;;;;;;;;;10488114;28;20040;-82
2023/12/08 18:10:27;;;;;;;172.27;73.87;;;;;;;;;;10463132;28;20036;-82
2023/12/08 18:15:28;;;;;;;173.20;71.30;;;;;;;;;;10483710;28;20082;-83
2023/12/08 18:20:30;;;;;;;211.70;82.77;;;;;;;;;;10490820;28;20086;-83
2023/12/08 18:25:31;;;;;;;147.23;62.00;;;;;;;;;;10443019;28;20164;-86
2023/12/08 18:30:32;;;;;;;181.53;69.27;;;;;;;;;;10481565;28;20064;-86
2023/12/08 18:35:34;;;;;;;185.93;77.80;;;;;;;;;;10469434;28;20056;-85
2023/12/08 18:40:35;;;;;;;106.10;45.53;;;;;;;;;;10484258;28;20463;-84
2023/12/08 18:45:36;;;;;;;108.73;46.20;;;;;;;;;;10485056;28;20400;-84
2023/12/08 18:50:37;;;;;;;104.00;42.87;;;;;;;;;;10476433;28;20032;-84
2023/12/08 18:55:39;;;;;;;99.30;41.43;;;;;;;;;;10462357;28;20048;-84
2023/12/08 19:00:40;;;;;;;125.30;59.07;;;;;;;;;;10489951;28;20033;-83
2023/12/08 19:05:42;;;;;;;117.23;53.17;;;;;;;;;;10488413;28;20052;-83
2023/12/08 19:10:44;;;;;;;120.87;50.13;;;;;;;;;;10486883;28;20036;-82
2023/12/08 19:15:45;;;;;;;99.47;46.60;;;;;;;;;;10454631;28;20115;-83
2023/12/08 19:20:47;;;;;;;97.60;45.77;;;;;;;;;;10478336;28;20032;-83
2023/12/08 19:25:49;;;;;;;87.37;39.50;;;;;;;;;;10486223;28;20049;-84
2023/12/08 19:30:51;;;;;;;94.90;39.93;;;;;;;;;;10484977;28;20043;-83
2023/12/08 19:35:52;;;;;;;96.40;37.83;;;;;;;;;;10487555;28;20052;-83
2023/12/08 19:40:53;;;;;;;96.87;41.23;;;;;;;;;;10478029;28;20033;-83
2023/12/08 19:45:54;;;;;;;85.37;35.87;;;;;;;;;;10484663;28;20086;-83
2023/12/08 19:50:55;;;;;;;93.03;42.30;;;;;;;;;;10478653;28;20111;-83
2023/12/08 19:55:57;;;;;;;100.60;45.53;;;;;;;;;;10479544;28;20044;-83
2023/12/08 20:01:06;;;;;;;90.40;39.80;;;;;;;;;;10483218;28;20111;-83
2023/12/08 20:06:07;;;;;;;92.37;37.33;;;;;;;;;;10489445;28;20407;-83
2023/12/08 20:11:10;;;;;;;105.33;40.47;;;;;;;;;;10474083;28;20484;-82
2023/12/08 20:16:11;;;;;;;116.10;46.03;;;;;;;;;;10485261;28;20194;-82
2023/12/08 20:21:12;;;;;;;98.40;42.40;;;;;;;;;;10493180;28;20031;-83
2023/12/08 20:26:19;;;;;;;102.47;42.13;;;;;;;;;;10482932;28;20166;-82
2023/12/08 20:31:21;;;;;;;107.17;44.53;;;;;;;;;;10490248;28;20032;-82
2023/12/08 20:36:22;;;;;;;91.80;36.13;;;;;;;;;;10493615;28;20052;-82
2023/12/08 20:41:24;;;;;;;106.40;42.83;;;;;;;;;;10494054;28;20029;-82
2023/12/08 20:46:25;;;;;;;122.80;49.30;;;;;;;;;;10494210;28;20484;-82
2023/12/08 20:51:27;;;;;;;111.87;42.07;;;;;;;;;;10492425;28;20706;-82
2023/12/08 20:56:31;;;;;;;146.43;56.63;;;;;;;;;;10489042;28;20032;-82
2023/12/08 21:01:32;;;;;;;136.43;50.63;;;;;;;;;;10491731;28;20488;-82
2023/12/08 21:06:33;;;;;;;93.07;38.97;;;;;;;;;;10491247;28;20504;-82
2023/12/08 21:11:34;;;;;;;96.23;37.37;;;;;;;;;;10492007;28;20111;-82
2023/12/08 21:16:38;;;;;;;107.10;43.70;;;;;;;;;;10491919;28;20044;-82
2023/12/08 21:21:39;;;;;;;88.70;36.93;;;;;;;;;;10484446;28;20090;-83
2023/12/08 21:26:40;;;;;;;123.27;44.67;;;;;;;;;;10495548;28;20044;-83
2023/12/08 21:31:50;;;;;;;111.80;42.50;;;;;;;;;;10473200;28;20029;-82
2023/12/08 21:36:51;;;;;;;106.83;39.97;;;;;;;;;;10505087;28;20128;-80
2023/12/08 21:41:52;;;;;;;108.43;43.23;;;;;;;;;;10495604;28;20086;-82
2023/12/08 21:46:53;;;;;;;102.70;43.33;;;;;;;;;;10496394;28;20051;-80
2023/12/08 21:51:55;;;;;;;117.90;45.70;;;;;;;;;;10501225;28;20436;-80
2023/12/08 21:56:57;;;;;;;120.33;39.93;;;;;;;;;;10492680;28;20539;-81
2023/12/08 22:01:58;;;;;;;97.23;37.63;;;;;;;;;;10479022;28;20061;-82
2023/12/08 22:06:59;;;;;;;104.13;40.07;;;;;;;;;;10488885;28;20216;-82
2023/12/08 22:12:00;;;;;;;90.07;38.93;;;;;;;;;;10463307;28;20029;-81
2023/12/08 22:17:01;;;;;;;108.50;39.70;;;;;;;;;;10484805;28;20036;-82
2023/12/08 22:22:02;;;;;;;105.60;42.30;;;;;;;;;;10477062;28;20060;-82
2023/12/08 22:27:04;;;;;;;146.63;51.57;;;;;;;;;;10487188;28;20041;-81
2023/12/08 22:32:08;;;;;;;106.97;42.50;;;;;;;;;;10464545;28;20036;-80
2023/12/08 22:37:09;;;;;;;108.60;38.77;;;;;;;;;;10485538;28;20045;-81
2023/12/08 22:42:23;;;;;;;116.77;39.53;;;;;;;;;;10485459;28;20043;-82
2023/12/08 22:47:24;;;;;;;104.53;41.30;;;;;;;;;;10485917;28;20097;-81
2023/12/08 22:52:25;;;;;;;115.17;43.33;;;;;;;;;;10481294;28;20392;-81
2023/12/08 22:57:26;;;;;;;115.60;41.37;;;;;;;;;;10488147;28;20485;-82
2023/12/08 23:02:28;;;;;;;105.60;41.07;;;;;;;;;;10483829;28;20024;-83
2023/12/08 23:07:29;;;;;;;100.47;39.83;;;;;;;;;;10485849;28;20078;-82
2023/12/08 23:12:30;;;;;;;122.97;43.03;;;;;;;;;;10467931;28;20032;-83
2023/12/08 23:17:31;;;;;;;124.63;45.93;;;;;;;;;;10488531;28;20488;-82
2023/12/08 23:22:32;;;;;;;110.80;43.70;;;;;;;;;;10488623;28;20068;-82
2023/12/08 23:27:33;;;;;;;128.07;45.63;;;;;;;;;;10478821;28;20040;-83
2023/12/08 23:32:35;;;;;;;121.87;43.60;;;;;;;;;;10481709;28;20016;-82
2023/12/08 23:37:36;;;;;;;119.07;43.60;;;;;;;;;;10488091;28;20063;-82
2023/12/08 23:42:38;;;;;;;118.70;44.40;;;;;;;;;;10494613;28;20040;-83
2023/12/08 23:47:39;;;;;;;132.67;44.33;;;;;;;;;;10496711;28;20135;-83
2023/12/08 23:52:40;;;;;;;122.97;44.10;;;;;;;;;;10497143;28;20535;-83
2023/12/08 23:57:41;;;;;;;117.43;42.57;;;;;;;;;;10494169;28;20028;-82
